Impacts TAF Board INFO
FOR SITUATIONAL AWARENESS. NOT TO BE USED FOR FLIGHT PLANNING PURPOSES.
IDs:

KPDX - Portland Intl Arpt, OR, US

Issued at 0859 UTC 21 Feb 2017
Updated at 0945 UTC 21 Feb 2017
Potential Impact None Slight Moderate High
Time0853Z 21/10Z 21/11Z 21/12Z 21/13Z 21/14Z 21/15Z 21/16Z 21/17Z 21/18Z 21/19Z 21/20Z 21/21Z 21/22Z
Type OBS PRVL PRVL PRVL PRVL PRVL PRVL PRVL PRVL PRVL PRVL PRVL PRVL PRVL
VIS 1.75 2 >6 >6 >6 >6 >6 5 5 5 5 5 >6 >6
CIG 2 2 15 15 15 15 15 20 20 20 20 20 35 35
Cover OVC OVC OVC OVC OVC OVC OVC OVC OVC OVC OVC OVC BKN BKN
FltCat LIFR LIFR MVFR MVFR MVFR MVFR MVFR MVFR MVFR MVFR MVFR MVFR VFR VFR
WX -RA BR BR -RA -RA -RA -RA -RA -RA BR -RA BR -RA BR -RA BR -RA BR -- --
WDir 300 90 350 350 350 350 350 300 300 300 300 300 270 270
WSpd 3 5 4 4 4 4 4 5 5 5 5 5 6 6
WGst -- -- -- -- -- -- -- -- -- -- -- -- -- --

Raw TAF
KPDX 210859Z 2109/2206 09005KT 2SM BR OVC002
  FM211100 35004KT P6SM -RA SCT005 BKN015 OVC025
  FM211600 30005KT 5SM -RA BR OVC020
  FM212100 27006KT P6SM BKN035


Raw METAR
KPDX 210853Z 30003KT 1 3/4SM -RA BR FEW000 OVC002 05/05 A2967 RMK AO2 RAB32 SLP044 FG FEW000 P0000 60000 T00500050 55009 $
KPDX 210838Z 00000KT 2 1/2SM -RA BR OVC003 06/05 A2966 RMK AO2 RAB32 P0000 T00560050 $
KPDX 210831Z 00000KT 1 3/4SM BR OVC003 06/05 A2966 RMK AO2 T00560050 $
KPDX 210818Z 00000KT 9SM OVC004 06/06 A2966 RMK AO2 T00610056 $
KPDX 210753Z 00000KT 10SM OVC005 07/06 A2966 RMK AO2 SLP044 T00670056 401000044 $
KPDX 210736Z 00000KT 10SM OVC005 07/06 A2967 RMK AO2 T00670056 $
KPDX 210653Z 00000KT 10SM SCT005 BKN023 OVC050 06/06 A2967 RMK AO2 SLP045 T00610056 $
KPDX 210634Z 00000KT 10SM FEW003 SCT021 BKN050 OVC130 06/05 A2968 RMK AO2 T00610050 $

METAR Board
Radar Display
Forecast Discussion

FOR SITUATIONAL AWARENESS. NOT TO BE USED FOR FLIGHT PLANNING PURPOSES.

Page loaded:  09:45 UTC  |   01:45 AM Pacific  |   02:45 AM Mountain  |   03:45 AM Central  |   04:45 AM Eastern

 

ADVISORIES

FORECASTS

FORECASTS

OBSERVATIONS

USER TOOLS

ABOUT US